Time;durP1;ratioP1;P1;durP2;ratioP2;P2;SDS_P1;SDS_P2;PMS_P1;PMS_P2;Temp;Humidity;BMP_temperature;BMP_pressure;BME280_temperature;BME280_humidity;BME280_pressure;Samples;Min_cycle;Max_cycle;Signal;HPM_P1;HPM_P2
2021/01/05 00:02:13;;;;;;;16.17;10.80;;;5.60;77.50;;;;;;4861467;29;20402;-81
2021/01/05 00:04:39;;;;;;;19.20;10.98;;;5.30;77.30;;;;;;4863924;29;20066;-81
2021/01/05 00:07:08;;;;;;;17.20;10.48;;;5.50;77.40;;;;;;4860083;29;20045;-82
2021/01/05 00:09:34;;;;;;;18.75;10.88;;;5.60;77.60;;;;;;4859883;29;20037;-82
2021/01/05 00:12:06;;;;;;;18.00;10.60;;;5.70;78.10;;;;;;4860120;29;20052;-82
2021/01/05 00:14:33;;;;;;;18.05;10.70;;;5.80;77.50;;;;;;4861517;29;20110;-82
2021/01/05 00:16:59;;;;;;;17.13;10.45;;;5.70;77.40;;;;;;4860079;29;20044;-82
2021/01/05 00:19:25;;;;;;;17.13;10.95;;;5.70;77.40;;;;;;4859476;29;20038;-81
2021/01/05 00:21:52;;;;;;;19.02;11.60;;;5.70;77.40;;;;;;4860224;29;20045;-82
2021/01/05 00:24:19;;;;;;;16.50;11.00;;;5.50;77.20;;;;;;4860056;29;20048;-82
2021/01/05 00:26:45;;;;;;;17.77;10.93;;;6.10;77.60;;;;;;4860149;29;20039;-81
2021/01/05 00:29:11;;;;;;;16.30;10.25;;;5.70;77.40;;;;;;4859876;29;20045;-81
2021/01/05 00:31:38;;;;;;;18.60;11.13;;;5.80;78.00;;;;;;4856878;29;20057;-81
2021/01/05 00:34:06;;;;;;;18.80;10.57;;;5.40;77.40;;;;;;4842697;29;20038;-81
2021/01/05 00:36:32;;;;;;;18.35;11.13;;;5.50;77.50;;;;;;4842712;29;20033;-82
2021/01/05 00:38:58;;;;;;;19.75;11.93;;;5.40;77.60;;;;;;4856552;29;20048;-82
2021/01/05 00:41:24;;;;;;;19.92;11.90;;;5.50;77.60;;;;;;4856785;29;20034;-82
2021/01/05 00:43:50;;;;;;;18.98;11.35;;;5.80;77.80;;;;;;4856814;29;20050;-82
2021/01/05 00:46:17;;;;;;;18.48;11.63;;;6.00;77.90;;;;;;4855641;29;20062;-82
2021/01/05 00:48:43;;;;;;;20.45;12.10;;;5.50;77.50;;;;;;4845128;29;20044;-81
2021/01/05 00:51:12;;;;;;;21.02;12.15;;;5.60;77.50;;;;;;4856983;29;20038;-82
2021/01/05 00:53:37;;;;;;;19.05;11.80;;;5.80;78.10;;;;;;4845831;29;20042;-81
2021/01/05 00:56:04;;;;;;;19.52;12.18;;;5.50;77.50;;;;;;4845643;29;20045;-82
2021/01/05 00:58:30;;;;;;;21.20;12.25;;;5.60;77.40;;;;;;4845738;29;20042;-82
2021/01/05 01:00:56;;;;;;;23.25;12.82;;;5.50;77.40;;;;;;4844524;29;20041;-82
2021/01/05 01:03:23;;;;;;;20.45;11.70;;;5.70;77.50;;;;;;4844744;29;20376;-82
2021/01/05 01:05:49;;;;;;;22.45;13.07;;;5.70;77.50;;;;;;4844791;29;20045;-81
2021/01/05 01:08:17;;;;;;;21.42;12.23;;;5.40;77.40;;;;;;4844699;29;20038;-82
2021/01/05 01:10:43;;;;;;;20.25;11.80;;;5.80;77.50;;;;;;4844757;29;20402;-82
2021/01/05 01:13:09;;;;;;;22.63;12.70;;;5.50;77.70;;;;;;4844447;29;20052;-81
2021/01/05 01:15:35;;;;;;;21.80;12.57;;;5.50;77.60;;;;;;4844443;29;20038;-81
2021/01/05 01:18:03;;;;;;;21.15;12.65;;;5.50;77.60;;;;;;4845697;29;20063;-82
2021/01/05 01:20:29;;;;;;;21.75;12.82;;;5.60;77.60;;;;;;4844676;29;20045;-83
2021/01/05 01:22:55;;;;;;;22.95;13.27;;;5.40;77.50;;;;;;4844285;29;20402;-81
2021/01/05 01:25:21;;;;;;;21.77;12.65;;;5.20;77.50;;;;;;4844155;29;20046;-83
2021/01/05 01:27:47;;;;;;;21.75;12.65;;;5.50;77.70;;;;;;4844529;29;20061;-83
2021/01/05 01:30:14;;;;;;;21.10;12.02;;;5.40;77.70;;;;;;4844344;29;20410;-82
2021/01/05 01:32:41;;;;;;;22.50;12.95;;;5.40;77.70;;;;;;4844245;29;20053;-81
2021/01/05 01:35:08;;;;;;;21.83;13.18;;;5.50;77.70;;;;;;4845459;29;20069;-82
2021/01/05 01:37:33;;;;;;;23.77;13.57;;;5.50;77.70;;;;;;4844065;29;20037;-82
2021/01/05 01:40:00;;;;;;;21.00;12.43;;;5.70;77.80;;;;;;4845239;29;20040;-81
2021/01/05 01:42:26;;;;;;;22.00;12.85;;;5.30;77.60;;;;;;4844144;29;20094;-81
2021/01/05 01:44:52;;;;;;;22.70;13.45;;;5.40;77.80;;;;;;4840833;29;20058;-83
2021/01/05 01:47:18;;;;;;;22.83;12.68;;;5.50;77.90;;;;;;4826959;29;20511;-82
2021/01/05 01:49:49;;;;;;;25.67;14.43;;;5.40;78.00;;;;;;4840906;29;20102;-81
2021/01/05 01:52:26;;;;;;;22.48;12.48;;;5.10;78.40;;;;;;4840408;29;20537;-81
2021/01/05 01:55:15;;;;;;;21.92;12.35;;;5.50;78.10;;;;;;4840949;29;20070;-83
2021/01/05 01:58:02;;;;;;;22.30;12.93;;;5.30;78.20;;;;;;4821684;29;20480;-82
2021/01/05 02:01:02;;;;;;;21.45;12.43;;;5.10;77.90;;;;;;4826647;29;20034;-81
2021/01/05 02:03:55;;;;;;;23.38;12.90;;;5.50;77.90;;;;;;4793670;29;20046;-80
2021/01/05 02:06:29;;;;;;;22.60;13.30;;;5.70;78.00;;;;;;4826769;29;20041;-82
2021/01/05 02:09:06;;;;;;;23.80;13.32;;;5.40;77.90;;;;;;4840311;29;20034;-82
2021/01/05 02:11:50;;;;;;;24.38;13.90;;;5.60;78.00;;;;;;4825124;29;20048;-84
2021/01/05 02:14:32;;;;;;;23.50;13.35;;;5.50;78.00;;;;;;4826444;29;20043;-82
2021/01/05 02:17:07;;;;;;;23.40;13.88;;;5.50;78.00;;;;;;4840188;29;20561;-81
2021/01/05 02:19:52;;;;;;;21.08;12.73;;;5.70;78.30;;;;;;4840095;29;20042;-83
2021/01/05 02:22:36;;;;;;;24.20;13.98;;;5.20;78.10;;;;;;4840722;29;20050;-83
2021/01/05 02:25:14;;;;;;;24.07;13.40;;;5.40;78.30;;;;;;4826438;29;20079;-81
2021/01/05 02:27:47;;;;;;;22.25;13.60;;;5.30;78.10;;;;;;4839931;29;20073;-81
2021/01/05 02:30:18;;;;;;;23.88;13.00;;;5.40;78.10;;;;;;4825024;29;20451;-82
2021/01/05 02:33:04;;;;;;;23.33;13.30;;;5.50;78.20;;;;;;4824544;29;20053;-82
2021/01/05 02:35:52;;;;;;;22.63;13.43;;;5.70;78.30;;;;;;4825174;29;20045;-82
2021/01/05 02:38:30;;;;;;;23.98;13.60;;;5.40;77.90;;;;;;4825914;29;20448;-83
2021/01/05 02:41:21;;;;;;;24.75;13.63;;;5.80;78.40;;;;;;4839853;29;20546;-81
2021/01/05 02:44:11;;;;;;;24.10;13.55;;;5.40;77.90;;;;;;4825705;29;20099;-82
2021/01/05 02:46:58;;;;;;;24.23;13.52;;;5.50;78.10;;;;;;4839821;29;20062;-82
2021/01/05 02:49:31;;;;;;;22.38;12.80;;;5.20;77.90;;;;;;4836863;29;20037;-82
2021/01/05 02:52:45;;;;;;;23.80;13.20;;;5.40;78.00;;;;;;4844891;29;20061;-81
2021/01/05 02:55:48;;;;;;;24.65;13.48;;;5.40;77.90;;;;;;4861128;29;20090;-82
2021/01/05 02:58:17;;;;;;;27.17;14.63;;;5.40;78.00;;;;;;4862148;29;20045;-81
2021/01/05 03:00:57;;;;;;;23.88;13.55;;;5.50;78.30;;;;;;4861259;29;20508;-80
2021/01/05 03:03:40;;;;;;;23.52;13.27;;;5.50;78.40;;;;;;4862194;29;20498;-81
2021/01/05 03:06:38;;;;;;;24.55;13.07;;;5.80;78.40;;;;;;4860838;29;20038;-83
2021/01/05 03:09:10;;;;;;;23.38;12.93;;;5.40;78.10;;;;;;4844476;29;20037;-82
2021/01/05 03:12:16;;;;;;;24.40;12.98;;;5.50;78.20;;;;;;4859774;29;20034;-82
2021/01/05 03:14:57;;;;;;;23.85;13.65;;;5.40;78.10;;;;;;4860740;29;20044;-82
2021/01/05 03:17:36;;;;;;;24.23;13.50;;;5.50;78.10;;;;;;4860863;29;20409;-82
2021/01/05 03:20:08;;;;;;;25.42;13.38;;;5.50;78.00;;;;;;4859777;29;20034;-81
2021/01/05 03:22:39;;;;;;;24.25;13.45;;;6.10;78.50;;;;;;4859947;29;20049;-82
2021/01/05 03:25:07;;;;;;;25.75;14.38;;;5.60;78.20;;;;;;4860705;29;20041;-81
2021/01/05 03:27:34;;;;;;;24.08;13.32;;;5.50;78.10;;;;;;4862110;29;20041;-81
2021/01/05 03:30:07;;;;;;;24.25;13.82;;;5.60;78.30;;;;;;4862001;29;20032;-81
2021/01/05 03:32:33;;;;;;;23.45;13.10;;;5.50;78.20;;;;;;4861407;29;20518;-82
2021/01/05 03:34:59;;;;;;;22.65;13.32;;;5.50;78.30;;;;;;4860537;29;20132;-81
2021/01/05 03:37:25;;;;;;;24.08;13.40;;;5.50;78.30;;;;;;4861879;29;20116;-82
2021/01/05 03:39:51;;;;;;;24.00;13.07;;;5.70;78.40;;;;;;4861437;29;20490;-81
2021/01/05 03:42:16;;;;;;;24.30;13.32;;;5.60;78.20;;;;;;4860466;29;20045;-82
2021/01/05 03:44:42;;;;;;;24.27;12.68;;;5.60;78.20;;;;;;4862333;29;20136;-82
2021/01/05 03:47:08;;;;;;;24.25;13.18;;;5.80;78.20;;;;;;4878355;29;20090;-82
2021/01/05 03:49:34;;;;;;;23.77;13.50;;;5.70;78.20;;;;;;4878167;29;20102;-82
2021/01/05 03:51:59;;;;;;;22.92;13.27;;;5.70;78.10;;;;;;4863680;29;20400;-82
2021/01/05 03:54:25;;;;;;;24.80;13.60;;;5.60;78.50;;;;;;4880282;29;20045;-82
2021/01/05 03:56:51;;;;;;;23.95;14.18;;;5.60;78.00;;;;;;4863322;29;20521;-82
2021/01/05 03:59:17;;;;;;;23.85;12.98;;;5.80;78.60;;;;;;4863391;29;20075;-82
2021/01/05 04:01:50;;;;;;;24.52;13.57;;;5.60;78.00;;;;;;4880569;29;20129;-82
2021/01/05 04:04:16;;;;;;;24.42;13.50;;;5.90;78.10;;;;;;4863629;29;20041;-82
2021/01/05 04:06:42;;;;;;;23.58;13.40;;;5.70;78.00;;;;;;4863371;29;20481;-81
2021/01/05 04:09:07;;;;;;;23.90;13.88;;;5.90;78.10;;;;;;4861837;29;20044;-82
2021/01/05 04:11:33;;;;;;;22.90;12.70;;;5.80;77.90;;;;;;4861768;29;20120;-83
2021/01/05 04:13:59;;;;;;;25.05;13.40;;;5.70;77.90;;;;;;4861702;29;20076;-82
2021/01/05 04:16:25;;;;;;;23.02;12.63;;;5.70;77.80;;;;;;4878059;29;20504;-82
2021/01/05 04:18:50;;;;;;;25.92;13.38;;;5.60;77.90;;;;;;4878163;29;20051;-83
2021/01/05 04:21:16;;;;;;;25.65;13.25;;;5.70;77.80;;;;;;4878419;29;20037;-82
2021/01/05 04:23:42;;;;;;;25.30;13.70;;;5.70;77.80;;;;;;4862184;29;20068;-82
2021/01/05 04:26:09;;;;;;;23.52;13.65;;;5.60;77.80;;;;;;4880695;29;20524;-82
2021/01/05 04:28:35;;;;;;;22.60;12.75;;;5.80;78.00;;;;;;4868527;29;20041;-82
2021/01/05 04:31:00;;;;;;;21.27;12.20;;;5.50;77.80;;;;;;4883754;29;20040;-82
2021/01/05 04:33:26;;;;;;;24.55;13.30;;;5.70;77.80;;;;;;4882335;29;20079;-81
2021/01/05 04:35:52;;;;;;;21.75;12.75;;;5.60;77.70;;;;;;4882520;29;20037;-82
2021/01/05 04:38:18;;;;;;;22.48;12.75;;;5.70;77.60;;;;;;4882261;29;20045;-82
2021/01/05 04:40:48;;;;;;;21.30;12.38;;;5.70;77.60;;;;;;4882340;29;20048;-82
2021/01/05 04:43:23;;;;;;;22.75;12.48;;;5.40;77.40;;;;;;4882030;29;20056;-81
2021/01/05 04:45:49;;;;;;;23.13;12.70;;;5.70;77.50;;;;;;4881693;29;20084;-81
2021/01/05 04:48:44;;;;;;;23.40;12.40;;;5.60;77.70;;;;;;4882998;29;20041;-81
2021/01/05 04:51:34;;;;;;;23.27;12.98;;;5.90;77.80;;;;;;4845749;29;20072;-81
2021/01/05 04:54:07;;;;;;;23.60;12.73;;;5.70;77.60;;;;;;4881567;29;20049;-82
2021/01/05 04:56:56;;;;;;;22.05;12.18;;;5.80;77.70;;;;;;4881349;29;20086;-82
2021/01/05 04:59:28;;;;;;;20.13;12.27;;;5.80;77.70;;;;;;4881670;29;20041;-82
2021/01/05 05:01:53;;;;;;;22.10;12.35;;;5.60;77.60;;;;;;4881480;29;20048;-82
2021/01/05 05:04:42;;;;;;;20.65;12.02;;;5.70;77.70;;;;;;4882739;29;20037;-82
2021/01/05 05:07:30;;;;;;;21.73;12.35;;;5.80;77.60;;;;;;4881866;29;20040;-82
2021/01/05 05:10:08;;;;;;;20.77;12.40;;;5.60;77.40;;;;;;4882981;29;20041;-82
2021/01/05 05:12:57;;;;;;;20.67;12.32;;;5.60;77.30;;;;;;4881810;29;20049;-82
2021/01/05 05:15:53;;;;;;;22.60;12.75;;;5.50;77.20;;;;;;4882587;29;20033;-81
2021/01/05 05:18:55;;;;;;;20.30;11.90;;;5.80;77.40;;;;;;4882261;29;20089;-82
2021/01/05 05:21:37;;;;;;;22.50;12.35;;;5.70;77.50;;;;;;4881666;29;20041;-81
2021/01/05 05:24:16;;;;;;;24.85;13.30;;;5.60;77.40;;;;;;4882514;29;20040;-81
2021/01/05 05:26:55;;;;;;;23.48;12.75;;;5.50;77.30;;;;;;4882542;29;20037;-81
2021/01/05 05:29:20;;;;;;;21.92;12.52;;;5.90;77.60;;;;;;4881356;29;20132;-81
2021/01/05 05:31:49;;;;;;;23.33;12.93;;;5.30;77.40;;;;;;4881304;29;20089;-82
2021/01/05 05:34:22;;;;;;;23.10;12.73;;;5.50;77.50;;;;;;4882128;29;20033;-81
2021/01/05 05:36:57;;;;;;;24.77;13.30;;;5.50;77.50;;;;;;4880651;29;20037;-82
2021/01/05 05:39:47;;;;;;;26.20;13.40;;;5.60;77.40;;;;;;4881248;29;20401;-82
2021/01/05 05:42:32;;;;;;;25.20;13.00;;;5.40;77.40;;;;;;4880796;29;20139;-82
2021/01/05 05:45:22;;;;;;;23.02;13.02;;;5.20;77.30;;;;;;4882248;29;20061;-82
2021/01/05 05:47:56;;;;;;;23.63;12.57;;;5.20;77.40;;;;;;4869170;29;20037;-81
2021/01/05 05:50:26;;;;;;;24.75;13.07;;;5.20;77.50;;;;;;4881266;29;20041;-82
2021/01/05 05:53:18;;;;;;;23.65;12.70;;;5.20;77.50;;;;;;4882049;29;20048;-82
2021/01/05 05:55:51;;;;;;;25.30;13.73;;;5.00;77.30;;;;;;4864748;29;20072;-81
2021/01/05 05:58:21;;;;;;;25.75;13.93;;;5.10;77.30;;;;;;4880917;29;20037;-82
2021/01/05 06:00:51;;;;;;;24.40;13.57;;;5.10;77.40;;;;;;4880490;29;20041;-82
2021/01/05 06:03:20;;;;;;;27.00;14.48;;;4.80;77.50;;;;;;4880875;29;20041;-82
2021/01/05 06:05:46;;;;;;;25.75;14.07;;;5.10;77.60;;;;;;4863350;29;20123;-77
2021/01/05 06:08:15;;;;;;;26.42;14.48;;;5.00;77.50;;;;;;4881936;29;20189;-82
2021/01/05 06:10:42;;;;;;;29.05;14.82;;;4.80;77.60;;;;;;4862894;29;20058;-81
2021/01/05 06:13:08;;;;;;;26.50;13.10;;;5.00;77.70;;;;;;4878892;29;20049;-81
2021/01/05 06:15:34;;;;;;;26.10;13.73;;;4.80;77.50;;;;;;4865684;29;20033;-82
2021/01/05 06:18:05;;;;;;;25.23;13.73;;;4.80;77.50;;;;;;4869880;29;20189;-80
2021/01/05 06:20:31;;;;;;;24.75;13.40;;;5.40;77.70;;;;;;4870847;29;20073;-81
2021/01/05 06:22:56;;;;;;;25.60;13.43;;;5.10;77.50;;;;;;4859100;29;20814;-81
2021/01/05 06:25:23;;;;;;;28.40;14.50;;;5.30;78.00;;;;;;4875860;29;20078;-81
2021/01/05 06:27:49;;;;;;;27.35;14.43;;;4.90;77.20;;;;;;4880660;29;20501;-81
2021/01/05 06:30:16;;;;;;;27.55;14.10;;;5.20;77.40;;;;;;4882229;29;20404;-81
2021/01/05 06:32:42;;;;;;;28.00;14.02;;;5.40;77.40;;;;;;4880461;29;20045;-80
2021/01/05 06:35:09;;;;;;;26.60;14.30;;;5.20;77.40;;;;;;4881299;29;20127;-81
2021/01/05 06:37:35;;;;;;;27.30;14.50;;;5.20;77.40;;;;;;4881227;29;20040;-82
2021/01/05 06:40:02;;;;;;;26.25;13.80;;;5.40;77.50;;;;;;4880134;29;20037;-83
2021/01/05 06:42:27;;;;;;;28.90;14.88;;;5.20;77.40;;;;;;4882044;29;20432;-83
2021/01/05 06:44:53;;;;;;;25.33;14.32;;;4.90;77.70;;;;;;4880396;29;20132;-82
2021/01/05 06:47:19;;;;;;;27.00;14.60;;;5.30;77.30;;;;;;4880676;29;20132;-82
2021/01/05 06:49:45;;;;;;;28.77;15.05;;;5.40;77.30;;;;;;4881961;29;20442;-80
2021/01/05 06:52:11;;;;;;;28.45;14.05;;;5.40;77.60;;;;;;4887889;29;20048;-82
2021/01/05 06:54:37;;;;;;;26.73;14.30;;;5.10;77.20;;;;;;4885304;29;20468;-82
2021/01/05 06:57:03;;;;;;;28.35;14.93;;;5.00;77.20;;;;;;4880471;29;20088;-82
2021/01/05 06:59:29;;;;;;;29.35;15.00;;;4.80;77.20;;;;;;4881860;29;20049;-82
2021/01/05 07:02:05;;;;;;;29.15;14.77;;;4.80;77.30;;;;;;4864934;29;20052;-81
2021/01/05 07:04:31;;;;;;;27.90;14.70;;;4.60;77.20;;;;;;4881037;29;20044;-82
2021/01/05 07:06:58;;;;;;;26.17;14.23;;;4.60;77.20;;;;;;4881213;29;20040;-78
2021/01/05 07:09:25;;;;;;;29.33;15.55;;;4.80;77.30;;;;;;4879434;29;20033;-82
2021/01/05 07:11:51;;;;;;;29.83;15.27;;;4.70;77.20;;;;;;4870212;29;20055;-81
2021/01/05 07:14:20;;;;;;;30.17;15.40;;;4.60;76.90;;;;;;4880499;29;20482;-82
2021/01/05 07:16:46;;;;;;;30.05;15.60;;;4.40;76.90;;;;;;4894404;29;20092;-79
2021/01/05 07:19:12;;;;;;;31.58;15.50;;;4.50;76.90;;;;;;4876947;29;20034;-80
2021/01/05 07:21:38;;;;;;;31.52;15.90;;;4.40;76.80;;;;;;4861363;29;20064;-82
2021/01/05 07:24:05;;;;;;;32.15;16.20;;;5.00;77.10;;;;;;4856670;29;20565;-81
2021/01/05 07:26:35;;;;;;;33.67;17.40;;;4.60;77.00;;;;;;4862666;29;20037;-80
2021/01/05 07:29:02;;;;;;;34.03;17.25;;;4.50;77.00;;;;;;4878423;29;20052;-82
2021/01/05 07:31:28;;;;;;;35.15;17.90;;;4.60;77.00;;;;;;4898994;29;20044;-80
2021/01/05 07:33:53;;;;;;;33.60;17.08;;;4.50;77.20;;;;;;4898140;29;20037;-80
2021/01/05 07:36:38;;;;;;;32.50;16.98;;;4.70;77.20;;;;;;4899157;29;20037;-82
2021/01/05 07:39:28;;;;;;;30.02;15.80;;;4.60;77.00;;;;;;4883778;29;20140;-81
2021/01/05 07:42:12;;;;;;;32.72;16.90;;;4.60;77.10;;;;;;4863947;29;20132;-82
2021/01/05 07:44:39;;;;;;;33.42;16.88;;;4.70;77.10;;;;;;4864815;29;20440;-80
2021/01/05 07:47:05;;;;;;;34.65;17.50;;;4.70;77.00;;;;;;4864117;29;20034;-80
2021/01/05 07:49:31;;;;;;;34.33;17.05;;;4.70;77.10;;;;;;4863672;29;20037;-81
2021/01/05 07:51:56;;;;;;;32.97;16.77;;;4.50;77.00;;;;;;4864326;29;20056;-82
2021/01/05 07:54:22;;;;;;;31.67;16.95;;;4.50;77.00;;;;;;4879243;29;20119;-82
2021/01/05 07:56:48;;;;;;;32.88;16.58;;;4.60;77.20;;;;;;4865349;29;20556;-82
2021/01/05 07:59:15;;;;;;;33.70;17.08;;;4.60;77.00;;;;;;4865659;29;20124;-83
2021/01/05 08:01:41;;;;;;;32.15;17.38;;;4.60;77.10;;;;;;4865613;29;20037;-83
2021/01/05 08:04:07;;;;;;;33.80;17.23;;;4.60;77.10;;;;;;4881333;29;20048;-83
2021/01/05 08:06:33;;;;;;;36.00;17.98;;;4.70;77.30;;;;;;4881592;29;20485;-83
2021/01/05 08:08:59;;;;;;;32.42;17.10;;;4.70;77.10;;;;;;4880087;29;20049;-83
2021/01/05 08:11:34;;;;;;;35.28;18.00;;;4.80;77.20;;;;;;4882138;29;20043;-83
2021/01/05 08:14:00;;;;;;;33.33;17.60;;;4.70;77.10;;;;;;4883854;29;20045;-83
2021/01/05 08:16:28;;;;;;;31.77;17.25;;;4.90;77.30;;;;;;4875100;29;20098;-83
2021/01/05 08:18:53;;;;;;;31.30;17.35;;;4.80;77.40;;;;;;4877698;29;20073;-83
2021/01/05 08:21:27;;;;;;;32.47;18.17;;;5.20;77.50;;;;;;4882140;29;20423;-83
2021/01/05 08:23:53;;;;;;;30.55;16.77;;;5.00;77.40;;;;;;4880392;29;20041;-82
2021/01/05 08:26:19;;;;;;;32.78;17.40;;;5.20;77.50;;;;;;4879548;29;20033;-83
2021/01/05 08:28:46;;;;;;;33.10;17.15;;;4.90;77.30;;;;;;4879748;29;20071;-83
2021/01/05 08:31:14;;;;;;;31.35;17.42;;;5.10;77.30;;;;;;4880332;29;20029;-79
2021/01/05 08:33:40;;;;;;;31.20;17.10;;;5.20;77.30;;;;;;4878805;29;20505;-82
2021/01/05 08:36:07;;;;;;;32.03;18.30;;;5.20;77.20;;;;;;4862541;29;20033;-83
2021/01/05 08:38:33;;;;;;;31.92;17.08;;;5.20;77.00;;;;;;4878231;29;20520;-82
2021/01/05 08:40:59;;;;;;;31.95;18.45;;;5.50;77.00;;;;;;4878867;29;20041;-83
2021/01/05 08:43:25;;;;;;;30.58;17.23;;;5.10;76.60;;;;;;4879662;29;20048;-83
2021/01/05 08:45:51;;;;;;;29.50;16.20;;;5.10;76.40;;;;;;4877990;29;20408;-83
2021/01/05 08:48:16;;;;;;;30.40;15.90;;;5.10;76.30;;;;;;4879360;29;20112;-83
2021/01/05 08:50:42;;;;;;;30.30;16.58;;;5.50;76.50;;;;;;4879132;29;20048;-83
2021/01/05 08:53:10;;;;;;;30.00;16.55;;;5.00;76.10;;;;;;4877770;29;20048;-83
2021/01/05 08:55:38;;;;;;;32.05;17.30;;;5.00;76.00;;;;;;4876886;29;20040;-83
2021/01/05 08:58:05;;;;;;;31.63;16.95;;;5.00;75.90;;;;;;4879138;29;20044;-83
2021/01/05 09:00:30;;;;;;;31.73;17.15;;;5.10;76.00;;;;;;4878897;29;20058;-83
2021/01/05 09:02:56;;;;;;;29.25;16.65;;;5.30;76.20;;;;;;4878971;29;20572;-83
2021/01/05 09:05:23;;;;;;;30.38;17.27;;;5.40;76.30;;;;;;4877774;29;20041;-83
2021/01/05 09:07:49;;;;;;;28.60;16.48;;;5.50;76.30;;;;;;4863225;29;20037;-82
2021/01/05 09:10:23;;;;;;;29.65;16.67;;;5.70;76.20;;;;;;4862755;29;20037;-82
2021/01/05 09:12:49;;;;;;;30.23;17.40;;;5.80;76.10;;;;;;4879697;29;20057;-82
2021/01/05 09:15:18;;;;;;;27.67;15.68;;;5.90;76.00;;;;;;4866545;29;20135;-83
2021/01/05 09:17:45;;;;;;;26.17;16.25;;;6.20;76.00;;;;;;4863506;29;20485;-82
2021/01/05 09:20:19;;;;;;;27.15;15.52;;;6.30;75.70;;;;;;4869183;29;20037;-82
2021/01/05 09:22:45;;;;;;;27.10;15.90;;;6.50;75.50;;;;;;4868306;29;20068;-82
2021/01/05 09:25:12;;;;;;;28.42;16.73;;;6.40;75.30;;;;;;4864895;29;20758;-79
2021/01/05 09:27:38;;;;;;;27.08;16.50;;;6.70;75.20;;;;;;4865687;29;20040;-79
2021/01/05 09:30:07;;;;;;;27.00;16.52;;;6.70;74.80;;;;;;4882659;29;20037;-79
2021/01/05 09:32:35;;;;;;;26.70;16.17;;;6.80;74.70;;;;;;4865669;29;20048;-80
2021/01/05 09:35:05;;;;;;;25.45;15.38;;;7.40;74.40;;;;;;4880841;29;20043;-80
2021/01/05 09:37:31;;;;;;;24.80;14.98;;;7.80;73.90;;;;;;4865266;29;20064;-79
2021/01/05 09:39:57;;;;;;;26.23;15.90;;;7.90;74.20;;;;;;4880989;29;20073;-80
2021/01/05 09:42:23;;;;;;;25.25;15.80;;;8.20;74.00;;;;;;4865544;29;20037;-79
2021/01/05 09:44:50;;;;;;;24.02;14.93;;;8.40;72.60;;;;;;4865264;29;20068;-80
2021/01/05 09:47:22;;;;;;;23.20;14.80;;;8.70;72.70;;;;;;4882062;29;20536;-80
2021/01/05 09:49:51;;;;;;;23.00;15.00;;;8.80;73.20;;;;;;4865223;29;20045;-80
2021/01/05 09:52:33;;;;;;;22.75;15.27;;;8.70;73.30;;;;;;4864017;29;20049;-81
2021/01/05 09:54:58;;;;;;;23.67;16.38;;;8.90;73.90;;;;;;4865098;29;20075;-81
2021/01/05 09:57:24;;;;;;;24.30;16.20;;;8.90;74.70;;;;;;4881613;29;20477;-81
2021/01/05 09:59:50;;;;;;;21.80;14.80;;;9.00;74.20;;;;;;4863112;29;20041;-80
2021/01/05 10:02:16;;;;;;;23.98;15.55;;;9.00;72.60;;;;;;4880046;29;20041;-80
2021/01/05 10:04:42;;;;;;;24.52;16.02;;;8.80;71.90;;;;;;4865122;29;20073;-79
2021/01/05 10:07:08;;;;;;;24.52;16.25;;;8.60;71.70;;;;;;4865168;29;20493;-79
2021/01/05 10:09:36;;;;;;;24.10;15.23;;;8.50;71.50;;;;;;4864322;29;20041;-80
2021/01/05 10:12:03;;;;;;;24.33;15.88;;;8.30;71.20;;;;;;4863624;29;20053;-80
2021/01/05 10:14:30;;;;;;;23.77;15.05;;;8.30;71.20;;;;;;4849212;29;20181;-80
2021/01/05 10:16:57;;;;;;;24.15;15.48;;;8.20;71.20;;;;;;4846775;29;20044;-80
2021/01/05 10:19:24;;;;;;;24.75;16.08;;;8.10;71.50;;;;;;4846738;29;20039;-79
2021/01/05 10:21:50;;;;;;;24.83;15.88;;;8.20;71.40;;;;;;4862523;29;20037;-79
2021/01/05 10:24:16;;;;;;;24.73;15.60;;;8.10;71.60;;;;;;4845487;29;20037;-80
2021/01/05 10:26:50;;;;;;;24.58;15.82;;;8.40;72.00;;;;;;4862838;29;20049;-80
2021/01/05 10:29:15;;;;;;;23.63;14.88;;;8.30;71.70;;;;;;4846694;29;20045;-82
2021/01/05 10:31:45;;;;;;;23.13;14.35;;;8.10;71.60;;;;;;4846991;29;20041;-82
2021/01/05 10:34:13;;;;;;;23.48;14.75;;;8.10;71.20;;;;;;4846654;29;20037;-83
2021/01/05 10:36:40;;;;;;;24.15;15.02;;;8.30;71.30;;;;;;4846604;29;20081;-82
2021/01/05 10:39:08;;;;;;;23.25;14.55;;;8.00;71.10;;;;;;4863490;29;20033;-83
2021/01/05 10:41:36;;;;;;;25.38;15.57;;;8.10;71.40;;;;;;4863416;29;20064;-81
2021/01/05 10:44:02;;;;;;;22.58;14.18;;;8.10;71.20;;;;;;4862804;29;20039;-83
2021/01/05 10:46:30;;;;;;;24.63;14.93;;;8.40;71.60;;;;;;4862970;29;20053;-84
2021/01/05 10:48:56;;;;;;;23.10;14.82;;;8.10;71.80;;;;;;4852933;29;20502;-84
2021/01/05 10:51:23;;;;;;;21.27;13.80;;;8.00;71.30;;;;;;4854424;29;20097;-82
2021/01/05 10:53:49;;;;;;;23.35;14.60;;;8.30;71.50;;;;;;4883313;29;20052;-82
2021/01/05 10:56:15;;;;;;;24.70;14.43;;;8.30;71.30;;;;;;4864656;29;20041;-84
2021/01/05 10:58:41;;;;;;;22.35;13.65;;;8.30;71.10;;;;;;4864986;29;20043;-84
2021/01/05 11:04:30;;;;;;;21.23;13.80;;;8.50;70.90;;;;;;4874730;29;20105;-83
2021/01/05 11:07:01;;;;;;;22.17;14.27;;;8.30;70.90;;;;;;4866772;29;20041;-84
2021/01/05 11:09:28;;;;;;;22.23;13.65;;;8.10;70.80;;;;;;4880489;29;20041;-80
2021/01/05 11:11:57;;;;;;;24.08;14.02;;;8.30;71.10;;;;;;4881184;29;20041;-81
2021/01/05 11:14:24;;;;;;;23.25;13.80;;;8.20;70.80;;;;;;4881787;29;20037;-81
2021/01/05 11:16:50;;;;;;;21.15;13.63;;;8.20;70.90;;;;;;4881498;29;20037;-83
2021/01/05 11:19:16;;;;;;;22.02;13.60;;;8.30;70.80;;;;;;4881897;29;20136;-82
2021/01/05 11:21:52;;;;;;;21.88;13.60;;;8.30;70.80;;;;;;4883738;29;20073;-85
2021/01/05 11:24:18;;;;;;;21.38;13.45;;;8.40;70.60;;;;;;4882730;29;20045;-81
2021/01/05 11:26:44;;;;;;;21.38;13.43;;;8.40;70.80;;;;;;4885293;29;20060;-83
2021/01/05 11:29:10;;;;;;;22.33;13.82;;;8.50;70.80;;;;;;4884032;29;20478;-81
2021/01/05 11:31:36;;;;;;;20.05;12.35;;;8.50;70.70;;;;;;4877644;29;20044;-83
2021/01/05 11:34:02;;;;;;;21.45;12.50;;;8.70;70.50;;;;;;4867300;29;20524;-83
2021/01/05 11:36:29;;;;;;;18.92;12.10;;;8.80;70.50;;;;;;4867004;29;20033;-83
2021/01/05 11:38:57;;;;;;;17.95;11.80;;;8.80;70.10;;;;;;4865616;29;20061;-84
2021/01/05 11:41:35;;;;;;;18.88;12.35;;;8.80;69.80;;;;;;4863265;29;20041;-82
2021/01/05 11:44:01;;;;;;;18.63;11.57;;;8.90;69.70;;;;;;4867954;29;20049;-83
2021/01/05 11:46:27;;;;;;;17.95;11.73;;;8.70;69.80;;;;;;4862849;29;20089;-80
2021/01/05 11:48:54;;;;;;;17.92;11.52;;;8.90;69.50;;;;;;4862366;29;20053;-83
2021/01/05 11:51:29;;;;;;;17.27;11.15;;;8.90;69.50;;;;;;4878498;29;20093;-82
2021/01/05 11:53:56;;;;;;;16.13;10.75;;;9.00;69.20;;;;;;4878460;29;20048;-83
2021/01/05 11:56:26;;;;;;;18.38;11.45;;;8.90;69.10;;;;;;4879840;29;20519;-80
2021/01/05 11:58:53;;;;;;;18.20;11.13;;;9.00;68.90;;;;;;4877926;29;20075;-83
2021/01/05 12:01:19;;;;;;;17.25;11.63;;;8.90;68.50;;;;;;4880037;29;20053;-83
2021/01/05 12:03:45;;;;;;;17.83;11.55;;;9.30;68.70;;;;;;4879144;29;20577;-83
2021/01/05 12:06:22;;;;;;;17.23;11.38;;;9.60;68.40;;;;;;4880982;29;20045;-83
2021/01/05 12:08:49;;;;;;;17.63;11.73;;;9.80;68.10;;;;;;4879639;29;20502;-81
2021/01/05 12:11:25;;;;;;;19.02;11.40;;;10.30;68.00;;;;;;4864829;29;20494;-84
2021/01/05 12:13:52;;;;;;;15.68;10.63;;;10.60;67.60;;;;;;4879701;29;20040;-85
2021/01/05 12:16:26;;;;;;;15.73;10.48;;;10.50;67.20;;;;;;4880710;29;20053;-84
2021/01/05 12:18:53;;;;;;;16.75;11.50;;;10.50;66.70;;;;;;4879746;29;20037;-82
2021/01/05 12:21:28;;;;;;;17.63;12.10;;;10.60;66.80;;;;;;4880940;29;20053;-83
2021/01/05 12:23:54;;;;;;;18.60;11.82;;;10.50;66.50;;;;;;4880193;29;20165;-83
2021/01/05 12:26:34;;;;;;;17.83;11.50;;;10.30;66.50;;;;;;4882266;29;20292;-82
2021/01/05 12:29:04;;;;;;;18.23;11.55;;;10.50;66.80;;;;;;4879728;29;20181;-84
2021/01/05 12:31:30;;;;;;;17.38;11.48;;;10.50;66.70;;;;;;4880616;29;20048;-82
2021/01/05 12:33:56;;;;;;;17.83;11.27;;;10.40;66.90;;;;;;4867299;29;20045;-82
2021/01/05 12:36:28;;;;;;;15.63;11.00;;;10.40;66.90;;;;;;4881519;29;20045;-82
2021/01/05 12:38:54;;;;;;;16.02;10.82;;;10.50;66.80;;;;;;4879979;29;20033;-82
2021/01/05 12:41:20;;;;;;;15.82;10.70;;;10.40;66.50;;;;;;4881570;29;20040;-82
2021/01/05 12:43:45;;;;;;;14.93;10.50;;;10.30;66.80;;;;;;4864098;29;20041;-83
2021/01/05 12:46:22;;;;;;;16.45;10.00;;;10.40;66.60;;;;;;4879219;29;20053;-82
2021/01/05 12:48:48;;;;;;;15.25;10.75;;;10.40;66.10;;;;;;4882740;29;20067;-84
2021/01/05 12:51:14;;;;;;;14.52;10.02;;;10.50;66.50;;;;;;4884296;29;20039;-81
2021/01/05 12:53:40;;;;;;;14.25;10.02;;;10.40;66.30;;;;;;4884763;29;20520;-84
2021/01/05 12:56:06;;;;;;;16.17;10.27;;;10.50;66.30;;;;;;4883189;29;20033;-84